Time;durP1;ratioP1;P1;durP2;ratioP2;P2;SDS_P1;SDS_P2;PMS_P1;PMS_P2;Temp;Humidity;BMP_temperature;BMP_pressure;BME280_temperature;BME280_humidity;BME280_pressure;Samples;Min_cycle;Max_cycle;Signal;HPM_P1;HPM_P2
2023/05/08 00:00:47;;;;;;;6.68;3.65;;;26.90;99.90;;;;;;4993476;28;20034;-48
2023/05/08 00:03:13;;;;;;;7.07;3.65;;;27.00;99.90;;;;;;4994426;28;20527;-48
2023/05/08 00:05:40;;;;;;;8.65;4.40;;;26.90;99.90;;;;;;4994548;28;20026;-48
2023/05/08 00:08:06;;;;;;;4.95;4.00;;;27.00;99.90;;;;;;4994045;28;20029;-48
2023/05/08 00:10:32;;;;;;;5.63;3.65;;;26.90;99.90;;;;;;5003382;28;20025;-48
2023/05/08 00:12:58;;;;;;;8.55;4.55;;;26.90;99.90;;;;;;4997823;28;20026;-48
2023/05/08 00:15:23;;;;;;;9.55;4.65;;;26.90;99.90;;;;;;4994161;28;20022;-47
2023/05/08 00:17:49;;;;;;;8.25;3.95;;;26.90;99.90;;;;;;4993944;28;20114;-47
2023/05/08 00:20:15;;;;;;;5.65;3.88;;;27.00;99.90;;;;;;4994381;28;20023;-48
2023/05/08 00:22:41;;;;;;;6.68;3.72;;;27.00;99.90;;;;;;4993923;28;20029;-48
2023/05/08 00:25:07;;;;;;;6.72;4.13;;;26.90;99.90;;;;;;5006903;28;20026;-47
2023/05/08 00:27:33;;;;;;;8.23;5.25;;;26.90;99.90;;;;;;4994018;28;20018;-48
2023/05/08 00:29:59;;;;;;;9.50;4.93;;;26.90;99.90;;;;;;4993846;28;20049;-48
2023/05/08 00:32:25;;;;;;;5.93;3.67;;;26.90;99.90;;;;;;4993895;28;20103;-48
2023/05/08 00:34:50;;;;;;;7.55;4.30;;;26.90;99.90;;;;;;4993515;28;20050;-48
2023/05/08 00:37:16;;;;;;;7.70;3.63;;;26.90;99.90;;;;;;4993949;28;20114;-47
2023/05/08 00:39:42;;;;;;;8.10;3.92;;;26.90;99.90;;;;;;4993630;28;20019;-47
2023/05/08 00:42:08;;;;;;;7.43;4.25;;;26.90;99.90;;;;;;4993628;28;20406;-45
2023/05/08 00:44:33;;;;;;;6.95;4.13;;;26.90;99.90;;;;;;5006464;28;20395;-45
2023/05/08 00:47:00;;;;;;;7.40;4.45;;;26.90;99.90;;;;;;4993545;28;20069;-45
2023/05/08 00:49:27;;;;;;;8.53;4.03;;;26.90;99.90;;;;;;5005947;28;20112;-47
2023/05/08 00:51:54;;;;;;;8.60;3.97;;;26.90;99.90;;;;;;4980616;28;20018;-47
2023/05/08 00:54:21;;;;;;;6.88;4.65;;;26.90;99.90;;;;;;4993403;28;20022;-49
2023/05/08 00:56:49;;;;;;;5.22;3.60;;;26.90;99.90;;;;;;4993456;28;20078;-48
2023/05/08 00:59:16;;;;;;;10.35;4.80;;;26.90;99.90;;;;;;4993579;28;20033;-48
2023/05/08 01:01:43;;;;;;;8.50;3.83;;;26.90;99.90;;;;;;4992263;28;20049;-47
2023/05/08 01:04:09;;;;;;;7.57;4.25;;;26.90;99.90;;;;;;4993313;28;20105;-47
2023/05/08 01:06:38;;;;;;;7.53;4.32;;;26.90;99.90;;;;;;4992918;28;20026;-48
2023/05/08 01:09:03;;;;;;;7.60;4.47;;;26.80;99.90;;;;;;4993098;28;20026;-48
2023/05/08 01:11:40;;;;;;;9.90;4.78;;;26.80;99.90;;;;;;4991875;28;20037;-47
2023/05/08 01:14:34;;;;;;;9.68;4.35;;;26.80;99.90;;;;;;4992951;28;20093;-48
2023/05/08 01:17:45;;;;;;;6.68;4.22;;;26.80;99.90;;;;;;4980848;28;20392;-48
2023/05/08 01:20:22;;;;;;;7.15;4.25;;;26.80;99.90;;;;;;4992569;28;20554;-48
2023/05/08 01:23:21;;;;;;;10.40;5.28;;;26.80;99.90;;;;;;5006164;28;20041;-48
2023/05/08 01:26:14;;;;;;;11.77;5.15;;;26.80;99.90;;;;;;4992866;28;20058;-48
2023/05/08 01:29:02;;;;;;;8.88;4.40;;;26.80;99.90;;;;;;4999667;28;20018;-48
2023/05/08 01:31:49;;;;;;;8.45;4.72;;;26.80;99.90;;;;;;4996237;28;20041;-48
2023/05/08 01:34:24;;;;;;;7.38;4.45;;;26.80;99.90;;;;;;4992871;28;20089;-47
2023/05/08 01:36:57;;;;;;;5.25;3.75;;;26.80;99.90;;;;;;4992454;28;20034;-48
2023/05/08 01:40:07;;;;;;;6.60;3.80;;;26.80;99.90;;;;;;4992695;28;20358;-48
2023/05/08 01:42:55;;;;;;;7.80;4.68;;;26.80;99.90;;;;;;4973613;28;20456;-48
2023/05/08 01:45:37;;;;;;;6.40;3.90;;;26.80;99.90;;;;;;4979239;28;20034;-48
2023/05/08 01:48:14;;;;;;;8.35;4.20;;;26.70;99.90;;;;;;4992524;28;20090;-47
2023/05/08 01:50:51;;;;;;;5.80;3.88;;;26.70;99.90;;;;;;4992779;28;20061;-47
2023/05/08 01:53:36;;;;;;;5.75;3.95;;;26.70;99.90;;;;;;4991225;28;20057;-47
2023/05/08 01:56:08;;;;;;;6.35;3.80;;;26.70;99.90;;;;;;4992447;28;20583;-47
2023/05/08 01:58:35;;;;;;;7.63;4.05;;;26.70;99.90;;;;;;4992812;28;20023;-47
2023/05/08 02:01:02;;;;;;;6.10;4.03;;;26.80;99.90;;;;;;5010212;23;20061;-49
2023/05/08 02:03:30;;;;;;;8.40;4.20;;;26.70;99.90;;;;;;4996556;28;20033;-52
2023/05/08 02:05:58;;;;;;;5.93;3.50;;;26.70;99.90;;;;;;4996603;28;20027;-48
2023/05/08 02:08:25;;;;;;;6.50;3.70;;;26.70;99.90;;;;;;4996730;28;20027;-48
2023/05/08 02:10:52;;;;;;;6.75;4.45;;;26.70;99.90;;;;;;4996600;28;20023;-48
2023/05/08 02:13:22;;;;;;;6.93;4.10;;;26.70;99.90;;;;;;4995008;28;20484;-48
2023/05/08 02:15:49;;;;;;;7.20;4.05;;;26.70;99.90;;;;;;4996342;28;20113;-48
2023/05/08 02:18:17;;;;;;;;;;;26.70;99.90;;;;;;4996838;28;20030;-48
2023/05/08 02:20:43;;;;;;;5.20;3.50;;;26.70;99.90;;;;;;4996419;28;20401;-49
2023/05/08 02:23:10;;;;;;;7.00;3.90;;;26.70;99.90;;;;;;4996419;28;20025;-48
2023/05/08 02:25:37;;;;;;;6.97;4.13;;;26.70;99.90;;;;;;4996491;28;20361;-48
2023/05/08 02:28:05;;;;;;;7.22;4.22;;;26.70;99.90;;;;;;5009206;28;20034;-49
2023/05/08 02:30:32;;;;;;;6.70;4.07;;;26.60;99.90;;;;;;4996241;28;20022;-48
2023/05/08 02:33:00;;;;;;;7.05;3.97;;;26.60;99.90;;;;;;4995951;28;20439;-48
2023/05/08 02:35:26;;;;;;;;;;;26.70;99.90;;;;;;4996525;28;20089;-48
2023/05/08 02:37:55;;;;;;;7.43;3.72;;;26.60;99.90;;;;;;4996117;28;19906;-49
2023/05/08 02:40:25;;;;;;;6.10;3.42;;;26.70;99.90;;;;;;4996051;28;20037;-48
2023/05/08 02:42:51;;;;;;;6.18;3.35;;;26.70;99.90;;;;;;4995976;28;20109;-48
2023/05/08 02:45:17;;;;;;;7.00;3.90;;;26.60;99.90;;;;;;4995873;28;20022;-48
2023/05/08 02:48:08;;;;;;;9.20;3.67;;;26.60;99.90;;;;;;4995750;28;20042;-48
2023/05/08 02:50:44;;;;;;;6.53;3.20;;;26.60;99.90;;;;;;4983407;28;20026;-49
2023/05/08 02:53:15;;;;;;;7.38;4.22;;;26.60;99.90;;;;;;4995890;28;20026;-48
2023/05/08 02:55:56;;;;;;;7.53;3.65;;;26.60;99.90;;;;;;4995679;28;20034;-47
2023/05/08 02:58:44;;;;;;;8.50;3.80;;;26.60;99.90;;;;;;4998333;28;20543;-47
2023/05/08 03:01:25;;;;;;;8.15;4.05;;;26.60;99.90;;;;;;5003294;28;20455;-47
2023/05/08 03:04:02;;;;;;;5.85;3.13;;;26.60;99.90;;;;;;4995500;28;20034;-48
2023/05/08 03:06:35;;;;;;;9.93;4.78;;;26.60;99.90;;;;;;4995312;28;20371;-48
2023/05/08 03:09:02;;;;;;;10.45;4.80;;;26.60;99.90;;;;;;4994251;28;20025;-47
2023/05/08 03:11:37;;;;;;;9.55;3.50;;;26.60;99.90;;;;;;4994702;28;20502;-46
2023/05/08 03:14:08;;;;;;;6.63;3.60;;;26.60;99.90;;;;;;4995157;28;20515;-47
2023/05/08 03:16:36;;;;;;;9.02;4.63;;;26.50;99.90;;;;;;4993629;28;20042;-48
2023/05/08 03:19:06;;;;;;;6.75;4.05;;;26.50;99.90;;;;;;4995566;28;20441;-48
2023/05/08 03:21:33;;;;;;;8.25;4.03;;;26.60;99.90;;;;;;4995251;28;20105;-48
2023/05/08 03:24:01;;;;;;;;;;;26.60;99.90;;;;;;4995761;28;20439;-48
2023/05/08 03:26:27;;;;;;;6.85;3.28;;;26.50;99.90;;;;;;4995026;28;20311;-48
2023/05/08 03:28:55;;;;;;;7.33;3.17;;;26.60;99.90;;;;;;4981614;28;20023;-48
2023/05/08 03:31:21;;;;;;;;;;;26.50;99.90;;;;;;4995335;28;20033;-48
2023/05/08 03:33:49;;;;;;;6.82;3.40;;;26.50;99.90;;;;;;4994921;28;20287;-48
2023/05/08 03:36:16;;;;;;;9.20;4.50;;;26.50;99.90;;;;;;4994776;28;20384;-48
2023/05/08 03:38:42;;;;;;;7.15;3.35;;;26.50;99.90;;;;;;4995224;28;20439;-48
2023/05/08 03:41:09;;;;;;;8.80;4.13;;;26.50;99.90;;;;;;4994632;28;20373;-48
2023/05/08 03:43:36;;;;;;;6.95;4.05;;;26.50;99.90;;;;;;4994603;28;20031;-48
2023/05/08 03:46:05;;;;;;;8.55;3.67;;;26.50;99.90;;;;;;4994577;28;20023;-48
2023/05/08 03:48:34;;;;;;;6.75;3.33;;;26.50;99.90;;;;;;4995038;28;20384;-48
2023/05/08 03:51:04;;;;;;;7.68;3.33;;;26.50;99.90;;;;;;4994708;28;20030;-48
2023/05/08 03:53:31;;;;;;;8.98;3.58;;;26.50;99.90;;;;;;4994614;28;20026;-48
2023/05/08 03:55:58;;;;;;;9.95;3.70;;;26.40;99.90;;;;;;4999667;28;20391;-48
2023/05/08 03:58:47;;;;;;;7.88;3.28;;;26.50;99.90;;;;;;5002415;28;20030;-48
2023/05/08 04:01:20;;;;;;;7.25;3.47;;;26.40;99.90;;;;;;4994853;28;20110;-47
2023/05/08 04:04:00;;;;;;;6.80;3.42;;;26.50;99.90;;;;;;4994409;28;20025;-48
2023/05/08 04:06:44;;;;;;;8.02;3.30;;;26.40;99.90;;;;;;4994328;28;20026;-48
2023/05/08 04:09:26;;;;;;;6.38;3.58;;;26.40;99.90;;;;;;4994429;28;20034;-47
2023/05/08 04:12:14;;;;;;;7.75;3.75;;;26.50;99.90;;;;;;4994173;28;20019;-47
2023/05/08 04:14:51;;;;;;;;;;;26.40;99.90;;;;;;4994712;28;20026;-46
2023/05/08 04:17:27;;;;;;;5.20;3.10;;;26.40;99.90;;;;;;4993934;28;19914;-48
2023/05/08 04:20:00;;;;;;;5.03;3.00;;;26.40;99.90;;;;;;4992862;28;20058;-48
2023/05/08 04:22:27;;;;;;;24.92;3.67;;;26.40;99.90;;;;;;4994071;28;20027;-47
2023/05/08 04:24:57;;;;;;;8.93;3.30;;;26.40;99.90;;;;;;4992973;28;20033;-48
2023/05/08 04:27:24;;;;;;;6.70;3.47;;;26.40;99.90;;;;;;4994040;28;20263;-48
2023/05/08 04:29:50;;;;;;;6.78;3.38;;;26.40;99.90;;;;;;4993612;28;20040;-48
2023/05/08 04:32:16;;;;;;;5.70;3.33;;;26.30;99.90;;;;;;4994290;28;20108;-48
2023/05/08 04:34:42;;;;;;;5.75;2.67;;;26.40;99.90;;;;;;4993977;28;20105;-48
2023/05/08 04:37:08;;;;;;;3.88;2.60;;;26.30;99.90;;;;;;4993645;28;20113;-48
2023/05/08 04:39:34;;;;;;;6.13;2.80;;;26.30;99.90;;;;;;4993814;28;20034;-48
2023/05/08 04:42:02;;;;;;;8.30;3.10;;;26.40;99.90;;;;;;4993519;28;20472;-49
2023/05/08 04:44:28;;;;;;;5.93;3.13;;;26.30;99.90;;;;;;4993549;28;20586;-48
2023/05/08 04:46:54;;;;;;;4.97;3.00;;;26.30;99.90;;;;;;4992153;28;20062;-48
2023/05/08 04:49:20;;;;;;;6.47;3.22;;;26.30;99.90;;;;;;4993480;28;20487;-48
2023/05/08 04:51:46;;;;;;;7.03;3.13;;;26.30;99.90;;;;;;4993689;28;20027;-48
2023/05/08 04:54:12;;;;;;;6.45;3.30;;;26.30;99.90;;;;;;4976012;28;20388;-49
2023/05/08 04:56:37;;;;;;;7.35;3.70;;;26.30;99.90;;;;;;4992135;28;20061;-48
2023/05/08 04:59:03;;;;;;;8.38;3.17;;;26.30;99.90;;;;;;4993550;28;20034;-48
2023/05/08 05:01:29;;;;;;;6.20;3.10;;;26.30;99.90;;;;;;4993147;28;20063;-48
2023/05/08 05:03:55;;;;;;;6.72;2.95;;;26.30;99.90;;;;;;4993340;28;20472;-48
2023/05/08 05:06:21;;;;;;;7.22;2.92;;;26.30;99.90;;;;;;4993106;28;20057;-48
2023/05/08 05:08:46;;;;;;;6.78;2.85;;;26.30;99.90;;;;;;4993381;28;20014;-48
2023/05/08 05:11:12;;;;;;;6.20;3.13;;;26.30;99.90;;;;;;4993161;28;20030;-48
2023/05/08 05:13:38;;;;;;;7.13;3.30;;;26.30;99.90;;;;;;4993009;28;20018;-48
2023/05/08 05:16:04;;;;;;;5.35;2.85;;;26.30;99.90;;;;;;4992897;28;20034;-48
2023/05/08 05:18:30;;;;;;;5.65;2.85;;;26.30;99.90;;;;;;4991619;28;20029;-48
2023/05/08 05:20:57;;;;;;;6.50;3.55;;;26.20;99.90;;;;;;4992837;28;20023;-48
2023/05/08 05:23:23;;;;;;;6.10;2.90;;;26.20;99.90;;;;;;4992912;28;20104;-48
2023/05/08 05:25:49;;;;;;;6.97;3.42;;;26.30;99.90;;;;;;4993037;28;20101;-48
2023/05/08 05:28:15;;;;;;;8.25;2.92;;;26.20;99.90;;;;;;4993114;28;20058;-48
2023/05/08 05:30:40;;;;;;;7.63;3.30;;;26.20;99.90;;;;;;4992813;28;20481;-48
2023/05/08 05:33:06;;;;;;;5.90;2.75;;;26.20;99.90;;;;;;4991445;28;20472;-48
2023/05/08 05:35:32;;;;;;;6.60;3.22;;;26.20;99.90;;;;;;4992436;28;20037;-48
2023/05/08 05:37:58;;;;;;;7.45;2.92;;;26.20;99.90;;;;;;4991372;28;20053;-48
2023/05/08 05:40:23;;;;;;;6.93;3.15;;;26.20;99.90;;;;;;4992699;28;20041;-47
2023/05/08 05:42:49;;;;;;;6.50;3.10;;;26.20;99.90;;;;;;4991519;28;20030;-48
2023/05/08 05:45:15;;;;;;;7.32;3.40;;;26.20;99.90;;;;;;4993012;28;20498;-47
2023/05/08 05:47:48;;;;;;;8.35;3.40;;;26.20;99.90;;;;;;4992651;28;20423;-48
2023/05/08 05:50:16;;;;;;;11.07;4.10;;;26.20;99.90;;;;;;4998783;28;20075;-48
2023/05/08 05:52:42;;;;;;;9.20;3.45;;;26.20;99.90;;;;;;4997721;28;20026;-47
2023/05/08 05:55:08;;;;;;;10.80;3.88;;;26.20;99.90;;;;;;4992438;28;20098;-48
2023/05/08 05:57:34;;;;;;;8.32;3.50;;;26.20;99.90;;;;;;5004362;28;20037;-48
2023/05/08 06:00:00;;;;;;;4.45;2.67;;;26.20;99.90;;;;;;4992256;28;20026;-48
2023/05/08 06:02:25;;;;;;;9.13;3.78;;;26.20;99.90;;;;;;4992218;28;20149;-48
2023/05/08 06:04:51;;;;;;;8.77;3.50;;;26.20;99.90;;;;;;4974986;28;20361;-48
2023/05/08 06:07:17;;;;;;;6.95;3.40;;;26.20;99.90;;;;;;4992722;28;20034;-48
2023/05/08 06:09:43;;;;;;;4.82;3.50;;;26.10;99.90;;;;;;4992252;28;20018;-48
2023/05/08 06:12:09;;;;;;;6.38;3.33;;;26.10;99.90;;;;;;4992464;28;20026;-48
2023/05/08 06:14:34;;;;;;;7.10;3.63;;;26.20;99.90;;;;;;4992358;28;20062;-49
2023/05/08 06:17:00;;;;;;;7.22;3.08;;;26.10;99.90;;;;;;4992209;28;20034;-48
2023/05/08 06:19:27;;;;;;;5.90;3.60;;;26.20;99.90;;;;;;4991105;28;20042;-50
2023/05/08 06:21:53;;;;;;;7.45;3.78;;;26.10;99.90;;;;;;4992320;28;20041;-49
2023/05/08 06:24:19;;;;;;;5.82;3.10;;;26.10;99.90;;;;;;4992394;28;20034;-48
2023/05/08 06:26:48;;;;;;;6.78;3.50;;;26.10;99.90;;;;;;4992056;28;20105;-48
2023/05/08 06:29:14;;;;;;;9.75;3.40;;;26.10;99.90;;;;;;4992175;28;20543;-48
2023/05/08 06:31:39;;;;;;;6.18;3.00;;;26.10;99.90;;;;;;4992058;28;20026;-48
2023/05/08 06:34:06;;;;;;;8.15;3.50;;;26.20;99.90;;;;;;4992116;28;20499;-48
2023/05/08 06:36:31;;;;;;;6.20;2.90;;;26.10;99.90;;;;;;4990974;28;20034;-48
2023/05/08 06:38:57;;;;;;;6.57;2.88;;;26.10;99.90;;;;;;4992046;28;20023;-48
2023/05/08 06:41:23;;;;;;;5.55;3.63;;;26.20;99.90;;;;;;4992010;28;20022;-48
2023/05/08 06:43:49;;;;;;;5.72;2.95;;;26.10;99.90;;;;;;4992016;28;20472;-48
2023/05/08 06:46:14;;;;;;;7.72;3.58;;;26.20;99.90;;;;;;4991578;28;20033;-48
2023/05/08 06:48:40;;;;;;;7.18;3.20;;;26.20;99.90;;;;;;4995083;28;20018;-49
2023/05/08 06:51:06;;;;;;;5.53;3.20;;;26.20;99.90;;;;;;4995294;28;20121;-49
2023/05/08 06:53:32;;;;;;;5.28;2.88;;;26.20;99.90;;;;;;4995605;28;20101;-49
2023/05/08 06:55:57;;;;;;;5.22;2.88;;;26.20;99.90;;;;;;4995424;28;20034;-49
2023/05/08 06:58:23;;;;;;;6.18;3.50;;;26.20;99.90;;;;;;4995484;28;20022;-49
2023/05/08 07:00:49;;;;;;;6.50;3.40;;;26.20;99.90;;;;;;4995431;28;20059;-49
2023/05/08 07:03:15;;;;;;;7.32;3.75;;;26.20;99.90;;;;;;4995080;28;20030;-48
2023/05/08 07:05:41;;;;;;;5.60;3.22;;;26.20;99.90;;;;;;4995183;28;20380;-49
2023/05/08 07:08:06;;;;;;;5.05;3.25;;;26.20;99.90;;;;;;4995136;28;20050;-49
2023/05/08 07:10:32;;;;;;;3.67;2.90;;;26.20;99.90;;;;;;4995124;28;20026;-49
2023/05/08 07:12:58;;;;;;;7.00;3.55;;;26.20;99.90;;;;;;4993919;28;20101;-49
2023/05/08 07:15:24;;;;;;;7.80;3.50;;;26.20;99.90;;;;;;4982107;28;20061;-49
2023/05/08 07:17:50;;;;;;;6.68;3.22;;;26.20;99.90;;;;;;5003827;28;20065;-49
2023/05/08 07:20:16;;;;;;;5.82;3.20;;;26.20;99.90;;;;;;4993449;28;20022;-49
2023/05/08 07:22:41;;;;;;;6.05;3.28;;;26.30;99.90;;;;;;4994860;28;20031;-47
2023/05/08 07:25:08;;;;;;;4.32;2.72;;;26.20;99.90;;;;;;4994572;28;20026;-49
2023/05/08 07:27:34;;;;;;;5.70;3.05;;;26.30;99.90;;;;;;4994927;28;20030;-48
2023/05/08 07:30:03;;;;;;;6.70;3.47;;;26.30;99.90;;;;;;4994606;28;20536;-48
2023/05/08 07:32:30;;;;;;;6.43;3.28;;;26.30;99.90;;;;;;4994912;28;20023;-48
2023/05/08 07:34:56;;;;;;;7.30;4.22;;;26.20;99.90;;;;;;4994401;28;20061;-48
2023/05/08 07:37:22;;;;;;;6.32;3.28;;;26.30;99.90;;;;;;4994717;28;20065;-48
2023/05/08 07:39:48;;;;;;;5.35;3.08;;;26.30;99.90;;;;;;4994348;28;20018;-48
2023/05/08 07:42:13;;;;;;;4.75;3.05;;;26.30;99.90;;;;;;4994478;28;20171;-48
2023/05/08 07:44:39;;;;;;;9.55;3.40;;;26.30;99.90;;;;;;4994610;28;20022;-48
2023/05/08 07:47:05;;;;;;;7.20;3.42;;;26.30;99.90;;;;;;4994340;28;20426;-49
2023/05/08 07:49:33;;;;;;;6.43;3.85;;;26.30;99.90;;;;;;5004819;28;20072;-48
2023/05/08 07:51:59;;;;;;;7.15;3.45;;;26.30;99.90;;;;;;4996505;28;20029;-49
2023/05/08 07:54:25;;;;;;;6.80;3.53;;;26.30;99.90;;;;;;4994444;28;20031;-48
2023/05/08 07:56:51;;;;;;;6.53;4.05;;;26.30;99.90;;;;;;4994140;28;20049;-48
2023/05/08 07:59:17;;;;;;;5.78;3.90;;;26.40;99.90;;;;;;4994299;28;20062;-49
2023/05/08 08:01:46;;;;;;;5.65;3.33;;;26.30;99.90;;;;;;4993765;28;20140;-48
2023/05/08 08:04:13;;;;;;;6.53;3.90;;;26.30;99.90;;;;;;4994158;28;20018;-48
2023/05/08 08:06:39;;;;;;;5.43;4.03;;;26.30;99.90;;;;;;4993865;28;20025;-48
2023/05/08 08:09:05;;;;;;;7.80;4.82;;;26.30;99.90;;;;;;5000912;28;20029;-48
2023/05/08 08:11:31;;;;;;;8.00;4.40;;;26.30;99.90;;;;;;5000108;28;20030;-48
2023/05/08 08:13:57;;;;;;;7.30;4.05;;;26.40;99.90;;;;;;4994044;28;20061;-48
2023/05/08 08:16:22;;;;;;;7.20;5.05;;;26.40;99.90;;;;;;4994149;28;20121;-48
2023/05/08 08:18:48;;;;;;;5.70;3.90;;;26.40;99.90;;;;;;4993727;28;20054;-48
2023/05/08 08:21:14;;;;;;;7.45;4.38;;;26.30;99.90;;;;;;4993824;28;20023;-49
2023/05/08 08:23:40;;;;;;;6.93;4.47;;;26.30;99.90;;;;;;4993735;28;20073;-48
2023/05/08 08:26:06;;;;;;;6.72;4.55;;;26.40;99.90;;;;;;4993721;28;20105;-48
2023/05/08 08:28:31;;;;;;;8.75;4.50;;;26.40;99.90;;;;;;4992075;28;20147;-47
2023/05/08 08:30:57;;;;;;;8.98;4.68;;;26.40;99.90;;;;;;4993712;28;20046;-47
2023/05/08 08:33:23;;;;;;;8.55;4.90;;;26.40;99.90;;;;;;4993363;28;20034;-48
2023/05/08 08:35:49;;;;;;;6.60;4.30;;;26.40;99.90;;;;;;5000986;28;20076;-49
2023/05/08 08:38:15;;;;;;;6.93;4.68;;;26.40;99.90;;;;;;4998994;28;20026;-48
2023/05/08 08:40:42;;;;;;;8.52;4.60;;;26.40;99.90;;;;;;4993483;28;20049;-48
2023/05/08 08:43:08;;;;;;;6.78;4.18;;;26.40;99.90;;;;;;4993445;28;20022;-49
2023/05/08 08:45:36;;;;;;;8.93;4.57;;;26.40;99.90;;;;;;4993133;28;20023;-48
2023/05/08 08:48:03;;;;;;;7.97;4.57;;;26.40;99.90;;;;;;4993245;28;20105;-49
2023/05/08 08:50:34;;;;;;;8.07;4.63;;;26.40;99.90;;;;;;5005330;28;20495;-49
2023/05/08 08:53:24;;;;;;;7.95;4.72;;;26.40;99.90;;;;;;4993198;28;20029;-49
2023/05/08 08:55:54;;;;;;;7.93;4.60;;;26.40;99.90;;;;;;4981160;28;20592;-49
2023/05/08 08:58:35;;;;;;;8.23;4.57;;;26.40;99.90;;;;;;4991677;28;20273;-48
2023/05/08 09:01:03;;;;;;;7.10;4.45;;;26.40;99.90;;;;;;4992982;28;20100;-48
2023/05/08 09:03:35;;;;;;;9.07;5.00;;;26.50;99.90;;;;;;4993216;28;20030;-48
2023/05/08 09:06:02;;;;;;;7.20;4.25;;;26.50;99.90;;;;;;4992892;28;20041;-48
2023/05/08 09:08:28;;;;;;;10.38;4.78;;;26.50;99.90;;;;;;4993116;28;20031;-48
2023/05/08 09:10:55;;;;;;;7.75;4.60;;;26.50;99.90;;;;;;4992373;28;20033;-48
2023/05/08 09:13:21;;;;;;;8.35;4.22;;;26.50;99.90;;;;;;4992732;28;20417;-48
2023/05/08 09:15:49;;;;;;;8.35;4.50;;;26.50;99.90;;;;;;4992806;28;20563;-48
2023/05/08 09:18:15;;;;;;;6.63;4.35;;;26.50;99.90;;;;;;4992578;28;20022;-48
2023/05/08 09:20:42;;;;;;;9.98;4.18;;;26.50;99.90;;;;;;4999054;28;20030;-48
2023/05/08 09:23:08;;;;;;;8.82;4.32;;;26.50;99.90;;;;;;5012474;28;20022;-48
2023/05/08 09:25:43;;;;;;;6.85;4.35;;;26.50;99.90;;;;;;4992603;28;20018;-49
2023/05/08 09:28:20;;;;;;;8.70;4.47;;;26.50;99.90;;;;;;4992666;28;20030;-49
2023/05/08 09:30:57;;;;;;;9.07;4.53;;;26.50;99.90;;;;;;4980633;28;20878;-49
2023/05/08 09:33:25;;;;;;;6.30;3.67;;;26.50;99.90;;;;;;4992421;28;20034;-49
2023/05/08 09:35:51;;;;;;;7.15;3.72;;;26.50;99.90;;;;;;5000074;28;20030;-49
2023/05/08 09:38:34;;;;;;;9.43;4.43;;;26.50;99.90;;;;;;4997579;28;20026;-49
2023/05/08 09:41:11;;;;;;;6.78;4.15;;;26.50;99.90;;;;;;4992616;28;20437;-49
2023/05/08 09:43:37;;;;;;;7.97;4.22;;;26.50;99.90;;;;;;4991190;28;20077;-50
2023/05/08 09:46:30;;;;;;;8.17;3.97;;;26.60;99.90;;;;;;4992004;28;20033;-49
2023/05/08 09:48:58;;;;;;;7.85;4.22;;;26.60;99.90;;;;;;4991543;28;20785;-48
2023/05/08 09:51:26;;;;;;;6.75;3.67;;;26.60;99.90;;;;;;4992322;28;20432;-49
2023/05/08 09:53:53;;;;;;;7.03;3.97;;;26.60;99.90;;;;;;4991644;28;20433;-49
2023/05/08 09:56:33;;;;;;;7.53;4.20;;;26.60;99.90;;;;;;4992244;28;20053;-49
2023/05/08 09:59:00;;;;;;;7.53;4.05;;;26.60;99.90;;;;;;4991047;28;20022;-51
2023/05/08 10:01:32;;;;;;;11.90;4.53;;;26.60;99.90;;;;;;4992069;28;20042;-50
2023/05/08 10:03:58;;;;;;;8.75;4.15;;;26.60;99.90;;;;;;4991852;28;20504;-51
2023/05/08 10:06:27;;;;;;;14.47;7.00;;;26.60;99.90;;;;;;4992189;28;20036;-51
2023/05/08 10:09:14;;;;;;;17.38;7.22;;;26.60;99.90;;;;;;4991851;28;20473;-51
2023/05/08 10:11:41;;;;;;;17.13;7.28;;;26.60;99.90;;;;;;4974382;28;20069;-50
2023/05/08 10:14:07;;;;;;;17.17;6.63;;;26.60;99.90;;;;;;4987923;28;20027;-50
2023/05/08 10:16:42;;;;;;;20.33;6.70;;;26.60;99.90;;;;;;4989972;28;20049;-50
2023/05/08 10:19:14;;;;;;;11.43;6.05;;;26.60;99.90;;;;;;4985396;28;20027;-50
2023/05/08 10:21:43;;;;;;;14.82;7.05;;;26.60;99.90;;;;;;4989636;28;20030;-50
2023/05/08 10:24:15;;;;;;;20.73;7.72;;;26.60;99.90;;;;;;4995072;28;20023;-51
2023/05/08 10:26:43;;;;;;;18.33;6.88;;;26.50;99.90;;;;;;4991712;28;20055;-51
2023/05/08 10:29:18;;;;;;;19.48;6.32;;;26.60;99.90;;;;;;4993383;28;20026;-49
2023/05/08 10:31:45;;;;;;;18.83;6.13;;;26.50;99.90;;;;;;4993431;28;20069;-49
2023/05/08 10:34:19;;;;;;;15.45;5.53;;;26.50;99.90;;;;;;4993371;28;20022;-49
2023/05/08 10:36:46;;;;;;;16.10;5.28;;;26.50;99.90;;;;;;4991472;28;20042;-50
2023/05/08 10:39:15;;;;;;;16.98;5.97;;;26.50;99.90;;;;;;4993075;28;20473;-48
2023/05/08 10:41:42;;;;;;;21.63;6.30;;;26.50;99.90;;;;;;4993509;28;20030;-52
2023/05/08 10:44:09;;;;;;;19.52;5.75;;;26.50;99.90;;;;;;4993120;28;20089;-49
2023/05/08 10:47:02;;;;;;;22.42;6.60;;;26.40;99.90;;;;;;4993101;28;20030;-50
2023/05/08 10:49:46;;;;;;;15.82;5.72;;;26.40;99.90;;;;;;4993232;28;20518;-50
2023/05/08 10:52:23;;;;;;;14.02;5.28;;;26.40;99.90;;;;;;4992232;28;20038;-50
2023/05/08 10:55:01;;;;;;;18.50;5.40;;;26.30;99.90;;;;;;4991914;28;20365;-49
2023/05/08 10:57:27;;;;;;;17.83;5.47;;;26.30;99.90;;;;;;4988845;28;20034;-52
2023/05/08 10:59:52;;;;;;;14.18;4.70;;;26.30;99.90;;;;;;4992068;28;20137;-50
2023/05/08 11:02:27;;;;;;;20.50;5.32;;;26.30;99.90;;;;;;4990430;28;20046;-50
2023/05/08 11:04:53;;;;;;;13.93;5.00;;;26.30;99.90;;;;;;4988376;28;20046;-50
2023/05/08 11:07:22;;;;;;;16.70;5.80;;;26.30;99.90;;;;;;4991256;28;20480;-50
2023/05/08 11:09:48;;;;;;;12.98;4.70;;;26.30;99.90;;;;;;4991249;28;20026;-48
2023/05/08 11:12:25;;;;;;;14.07;5.20;;;26.30;99.90;;;;;;4986585;28;20500;-51
2023/05/08 11:15:05;;;;;;;20.98;5.35;;;26.20;99.90;;;;;;4991180;28;20511;-48
2023/05/08 11:17:32;;;;;;;13.80;4.82;;;26.10;99.90;;;;;;4988553;28;20034;-49
2023/05/08 11:20:03;;;;;;;11.07;4.25;;;26.10;99.90;;;;;;4991449;28;20022;-49
2023/05/08 11:22:31;;;;;;;15.45;4.70;;;26.10;99.90;;;;;;4988839;28;20113;-50
2023/05/08 11:25:10;;;;;;;16.50;4.32;;;26.10;99.90;;;;;;4990098;28;20072;-48
2023/05/08 11:27:59;;;;;;;11.75;4.78;;;26.10;99.90;;;;;;4989274;28;20109;-49
2023/05/08 11:30:45;;;;;;;10.70;5.05;;;26.20;99.90;;;;;;4988885;28;20018;-48
2023/05/08 11:33:13;;;;;;;10.95;4.55;;;26.20;99.90;;;;;;4990674;28;20057;-48
2023/05/08 11:36:14;;;;;;;10.73;3.90;;;26.30;99.90;;;;;;4991232;28;20027;-48
2023/05/08 11:38:42;;;;;;;11.32;3.75;;;26.30;99.90;;;;;;4992310;28;20100;-47
2023/05/08 11:41:26;;;;;;;18.50;5.38;;;26.30;99.90;;;;;;4987934;28;20439;-50
2023/05/08 11:44:19;;;;;;;16.08;5.25;;;26.40;99.90;;;;;;4990215;28;20679;-49
2023/05/08 11:46:52;;;;;;;10.75;5.13;;;26.30;99.90;;;;;;4992413;28;20026;-48
2023/05/08 11:49:28;;;;;;;17.30;5.90;;;26.20;99.90;;;;;;4989126;28;20032;-48
2023/05/08 11:51:57;;;;;;;13.43;5.22;;;26.10;99.90;;;;;;4991127;28;20034;-50
2023/05/08 11:54:24;;;;;;;15.95;5.95;;;25.90;99.90;;;;;;4987484;28;20110;-48
2023/05/08 11:56:53;;;;;;;14.48;5.07;;;25.90;99.90;;;;;;4988806;28;20078;-49
2023/05/08 11:59:20;;;;;;;12.65;5.43;;;25.80;99.90;;;;;;4988819;28;20105;-48
2023/05/08 12:01:49;;;;;;;13.30;5.18;;;25.70;99.90;;;;;;4989385;28;20058;-47
2023/05/08 12:04:14;;;;;;;18.83;7.63;;;25.70;99.90;;;;;;4989871;28;20050;-48
2023/05/08 12:06:41;;;;;;;14.35;5.95;;;25.60;99.90;;;;;;4991575;28;20031;-47
2023/05/08 12:09:12;;;;;;;17.23;7.63;;;25.50;99.90;;;;;;4988578;28;20128;-46
2023/05/08 12:11:42;;;;;;;17.15;8.70;;;25.40;99.90;;;;;;4989438;28;20392;-49
2023/05/08 12:14:08;;;;;;;14.35;6.35;;;25.40;99.90;;;;;;4991161;28;20019;-48
2023/05/08 12:16:38;;;;;;;15.93;7.25;;;25.30;99.90;;;;;;4988063;28;20034;-50
2023/05/08 12:19:09;;;;;;;16.77;8.00;;;25.30;99.90;;;;;;4987959;28;20033;-50
2023/05/08 12:21:35;;;;;;;16.30;6.53;;;25.20;99.90;;;;;;4989756;28;20499;-50
2023/05/08 12:24:05;;;;;;;18.83;7.45;;;25.10;99.90;;;;;;4990399;28;20109;-51
2023/05/08 12:26:36;;;;;;;12.35;5.45;;;25.00;99.90;;;;;;4991550;28;20057;-49
2023/05/08 12:29:04;;;;;;;19.63;7.10;;;25.00;99.90;;;;;;4990839;28;20464;-48
2023/05/08 12:31:31;;;;;;;10.18;5.78;;;25.00;99.90;;;;;;4990459;28;20116;-47
2023/05/08 12:33:57;;;;;;;18.02;6.28;;;25.00;99.90;;;;;;4991032;28;20051;-47
2023/05/08 12:36:23;;;;;;;10.50;4.93;;;25.10;99.90;;;;;;4991201;28;20100;-47
2023/05/08 12:38:50;;;;;;;11.23;4.78;;;25.20;99.90;;;;;;4989725;28;20307;-48
2023/05/08 12:41:23;;;;;;;12.45;5.03;;;25.30;99.90;;;;;;4987251;28;20034;-49
2023/05/08 12:43:49;;;;;;;12.25;5.18;;;25.40;99.90;;;;;;4986647;28;20128;-48
2023/05/08 12:46:16;;;;;;;11.73;5.65;;;25.40;99.90;;;;;;4987635;28;20483;-49
2023/05/08 12:48:42;;;;;;;14.10;5.60;;;25.50;99.90;;;;;;4989058;28;20392;-48
2023/05/08 12:51:10;;;;;;;13.52;5.07;;;25.60;99.90;;;;;;4989078;28;20034;-49
2023/05/08 12:53:37;;;;;;;9.40;5.78;;;25.70;99.90;;;;;;4989509;28;20026;-50
2023/05/08 12:56:03;;;;;;;17.08;7.00;;;25.70;99.90;;;;;;4989999;28;20101;-49
2023/05/08 12:58:33;;;;;;;14.43;6.55;;;25.80;99.90;;;;;;4990987;28;20053;-49